METAR Data
IDs: Format: Raw Decoded Include TAF

Data at: 2203 UTC 02 Aug 2021

ZYCC 022100Z 22005MPS 9999 SCT004 OVC020 18/17 Q1006 NOSIG